createdAt,value
2023-01-13T05:33:55.802Z,2.31
2023-01-13T05:36:58.543Z,2.49
2023-01-13T05:40:19.488Z,2.40
2023-01-13T05:43:23.044Z,2.30
2023-01-13T05:46:25.851Z,2.05
2023-01-13T05:49:28.593Z,2.02
2023-01-13T05:52:31.239Z,2.11
2023-01-13T05:55:33.745Z,2.23
2023-01-13T05:58:36.412Z,2.34
2023-01-13T06:01:38.978Z,2.43
2023-01-13T06:04:41.719Z,2.41
2023-01-13T06:07:44.530Z,2.57
2023-01-13T06:10:47.143Z,2.56
2023-01-13T06:13:49.747Z,2.58
2023-01-13T06:16:52.309Z,2.62
2023-01-13T06:19:55.075Z,2.70
2023-01-13T06:22:57.736Z,2.75
2023-01-13T06:26:07.091Z,2.74
2023-01-13T06:29:10.263Z,2.74
2023-01-13T06:32:19.173Z,2.80
2023-01-13T06:35:25.110Z,2.52
2023-01-13T06:38:27.928Z,2.56
2023-01-13T06:41:50.802Z,2.78
2023-01-13T06:44:53.647Z,2.74
2023-01-13T06:47:58.558Z,2.82
2023-01-13T06:51:04.789Z,2.83
2023-01-13T06:54:07.398Z,2.94
2023-01-13T06:57:09.942Z,2.94
2023-01-13T07:00:13.248Z,2.97
2023-01-13T07:03:16.471Z,3.04
2023-01-13T07:06:23.426Z,3.04
2023-01-13T07:09:26.779Z,3.04
2023-01-13T07:12:29.376Z,2.97
2023-01-13T07:15:32.226Z,3.01
2023-01-13T07:18:35.309Z,2.88
2023-01-13T07:21:38.992Z,2.86
2023-01-13T07:25:03.424Z,2.98
2023-01-13T07:28:09.424Z,2.93
2023-01-13T07:31:16.722Z,3.06
2023-01-13T07:34:19.407Z,2.95
2023-01-13T07:37:21.958Z,2.91
2023-01-13T07:40:24.582Z,2.96
2023-01-13T07:43:32.897Z,2.90
2023-01-13T07:46:35.596Z,3.08
